Terminal Aerodrome Forecast
Issued by NWS

Home | Current Version | Previous Version | Graphics & Text | Print | Product List | Glossary On
Versions: 1 2 3 4 5 6 7 8 9 10 11 12 13 14 15 16 17 18 19 20 21
000
FTUS43 KGRB 241100
TAFCWA
TAF
KCWA 241132Z 2412/2512 02006KT 4SM BR OVC004
      TEMPO 2412/2414 2SM -FZDZSN OVC002
     FM241600 36005KT 6SM -SN BR SCT005 OVC010
     FM241900 35008KT P6SM -SN SCT008 OVC015
     FM250100 31006KT P6SM BKN015 OVC022
     FM250600 27007KT P6SM OVC024=

USA.gov is the U.S. government's official web portal to all federal, state and local government web resources and services.